Vinton, Virginia
Current Conditions -  °F | °C
As of 4:25 PM on Wednesday 26 Nov 2014 (Local Time) from KROA Reporting Station
Broken Clouds Broken Clouds  
Wind Chill: 36°   Ceiling: 2300
Heat Index: 39°   Visibility: 10mi
Dew Point: 36°   Wind: 5mph
Humidity: 89%   Direction: 70°ENE
Pressure: 29.99"   Gusts: NA
Location:  37.28°N, 79.9°W
Report Text: KROA 262125Z 07004KT 10SM FEW016 BKN023 04/02 A2999 RMK AO2 T00390022
Loading
Personal Weather Stations






























Interactive Weather Map New forecast layout! Learn more

10-Day Weather Forecast

Advertisements
Track Severe Weather on mobile